Terminal Aerodrome Forecast
Issued by NWS Louisville, KY

Home | Current Version | Previous Version | Text Only | Print | Product List | Glossary On
Versions: 1 2 3 4 5 6 7 8 9 10 11 12 13 14 15
000
FTUS43 KLMK 050146 AAA
TAFLEX
TAF AMD
KLEX 050146Z 0502/0524 VRB03KT P6SM FEW060
      TEMPO 0502/0503 03015G25KT 6SM -SHRA
     FM050900 VRB03KT 4SM BR SKC
     FM051400 10005KT P6SM FEW050=

USA.gov is the U.S. government's official web portal to all federal, state and local government web resources and services.